WHISKEYTOWN DAM (USBR) (WHI)

Elevation: 1210' · SACRAMENTO R basin · Operator: US Bureau of Reclamation

Provisional data, subject to change.
Query executed Wednesday at 6:26:13   clock

Select a sensor type for a plot of data.
Note: Reservoir Flows are daily averages.

Earlier

Date RES ELE    STORAGE    RES CHG    OUTFLOW    INFLOW    EVAP    RIV REL    PPT INC    RAIN    SPILL    DIS PWR   
 FEET   AF   AF   CFS   CFS   CFS   CFS   INCHES   INCHES   CFS   CFS  
06/28/2016 1209.24 238663 608 827 1162 28 184 0.00 63.78 0 643
06/29/2016 1209.30 238855 192 970 1095 28 125 0.00 63.78 0 845
06/30/2016 1209.37 239079 224 966 1113 34 125 0.00 63.78 0 841
07/01/2016 1209.54 239624 545 763 1062 24 125 0.00 63.78 0 638
07/02/2016 1209.61 239848 224 952 1089 24 125 0.00 63.78 0 827
07/03/2016 1209.44 239303 -545 1373 1126 28 125 0.00 63.78 0 1248
07/04/2016 1209.32 238919 -384 1299 1129 24 125 0.00 63.78 0 1174
07/05/2016 1209.39 239143 224 1291 1427 23 125 0.00 63.78 0 1166
07/06/2016 1209.41 239207 64 1287 1345 26 124 0.00 63.78 0 1163
07/07/2016 1209.56 239688 481 809 1077 25 109 0.00 63.78 0 700
07/08/2016 1209.59 239784 96 998 1071 25 99 0.00 63.78 0 899
07/09/2016 1209.52 239560 -224 1268 1171 16 95 0.00 63.78 0 1173
07/10/2016 1208.90 237577 -1983 1431 452 21 95 0.00 63.78 0 1336
07/11/2016 1209.07 238119 542 780 1076 23 95 0.00 63.78 0 685
07/12/2016 1209.03 237991 -128 1259 1219 25 95 0.00 63.78 0 1164
07/13/2016 1209.04 238023 32 1362 1404 26 97 0.00 63.78 0 1265
07/14/2016 1209.08 238151 128 1353 1449 31 97 0.00 63.78 0 1256
07/15/2016 1209.29 238823 672 1486 1856 31 97 0.00 63.78 0 1389
07/16/2016 1209.41 239207 384 1835 2052 23 97 0.00 63.78 0 1738
07/17/2016 1209.09 238183 -1024 1675 1188 29 97 0.00 63.78 0 1578
07/18/2016 1209.06 238087 -96 1617 1583 14 97 0.00 63.78 0 1520
07/19/2016 1209.08 238151 64 1290 1346 24 103 0.00 63.78 0 1187
07/20/2016 1209.04 238023 -128 1278 1236 23 111 0.00 63.78 0 1167
07/21/2016 1209.09 238183 160 951 1059 27 111 0.00 63.78 0 840
07/22/2016 1208.95 237736 -447 825 627 27 111 0.00 63.78 0 714
07/23/2016 1209.06 238087 351 825 1032 30 111 0.00 63.78 0 714
07/24/2016 1208.99 237863 -224 988 905 30 123 0.00 63.78 0 865
07/25/2016 1209.05 238055 192 1011 1140 32 142 0.00 63.78 0 869
07/26/2016 1208.98 237831 -224 864 779 28 151 0.00 -- 0 713
07/27/2016 -- -- -- -- -- -- -- -- -- -- --

Later | Latest

Warning! This data is preliminary and subject to revision.

Show WHI Map | Plot WHI Data | 1 Month WHI Data | Real-Time WHI Data | WHI Info